Time;durP1;ratioP1;P1;durP2;ratioP2;P2;SDS_P1;SDS_P2;PMS_P1;PMS_P2;Temp;Humidity;BMP_temperature;BMP_pressure;BME280_temperature;BME280_humidity;BME280_pressure;Samples;Min_cycle;Max_cycle;Signal;HPM_P1;HPM_P2
2020/12/24 00:01:11;;;;;;;3.77;1.50;;;;;;;;;;4976819;28;20659;-74
2020/12/24 00:03:37;;;;;;;8.33;2.03;;;;;;;;;;4973105;28;20504;-74
2020/12/24 00:06:03;;;;;;;6.00;1.90;;;;;;;;;;4972231;28;20910;-74
2020/12/24 00:08:29;;;;;;;5.35;2.67;;;;;;;;;;4978634;28;20196;-74
2020/12/24 00:10:55;;;;;;;6.83;1.80;;;;;;;;;;4981332;28;20238;-74
2020/12/24 00:13:21;;;;;;;3.80;1.38;;;;;;;;;;4972816;28;20447;-74
2020/12/24 00:15:47;;;;;;;6.93;2.30;;;;;;;;;;4973258;28;20636;-74
2020/12/24 00:18:13;;;;;;;5.17;1.27;;;;;;;;;;4982495;28;20446;-74
2020/12/24 00:20:39;;;;;;;6.60;1.60;;;;;;;;;;4978103;28;20806;-73
2020/12/24 00:23:08;;;;;;;10.00;2.30;;;;;;;;;;4979669;28;20513;-73
2020/12/24 00:25:34;;;;;;;5.75;1.60;;;;;;;;;;4981442;28;20184;-74
2020/12/24 00:28:00;;;;;;;4.40;1.30;;;;;;;;;;4980488;28;20179;-74
2020/12/24 00:30:26;;;;;;;4.13;1.60;;;;;;;;;;4979846;28;20824;-74
2020/12/24 00:32:52;;;;;;;8.15;1.77;;;;;;;;;;4977888;28;21176;-74
2020/12/24 00:35:18;;;;;;;5.78;2.03;;;;;;;;;;4981485;28;20195;-74
2020/12/24 00:37:47;;;;;;;5.90;1.92;;;;;;;;;;4981021;28;20563;-74
2020/12/24 00:40:13;;;;;;;3.47;1.85;;;;;;;;;;4976555;28;20239;-73
2020/12/24 00:42:39;;;;;;;9.52;2.35;;;;;;;;;;4970820;28;20743;-73
2020/12/24 00:45:05;;;;;;;4.28;1.60;;;;;;;;;;4971729;28;20204;-73
2020/12/24 00:47:31;;;;;;;5.20;1.47;;;;;;;;;;4973307;28;20258;-73
2020/12/24 00:49:57;;;;;;;10.75;1.65;;;;;;;;;;4973110;28;20428;-73
2020/12/24 00:52:23;;;;;;;10.55;1.70;;;;;;;;;;4976190;28;20216;-73
2020/12/24 00:54:49;;;;;;;5.73;1.73;;;;;;;;;;4981857;28;20187;-73
2020/12/24 00:57:14;;;;;;;6.07;1.58;;;;;;;;;;4972072;28;20486;-73
2020/12/24 00:59:40;;;;;;;16.20;3.27;;;;;;;;;;4969599;28;20589;-73
2020/12/24 01:02:07;;;;;;;4.75;1.88;;;;;;;;;;4972076;28;20984;-73
2020/12/24 01:04:34;;;;;;;1.73;1.40;;;;;;;;;;4972179;28;20192;-73
2020/12/24 01:06:59;;;;;;;7.65;1.73;;;;;;;;;;4971516;28;20281;-73
2020/12/24 01:09:25;;;;;;;3.53;1.53;;;;;;;;;;4982229;28;20582;-74
2020/12/24 01:11:51;;;;;;;11.18;2.25;;;;;;;;;;4972263;28;20467;-74
2020/12/24 01:14:17;;;;;;;4.88;1.73;;;;;;;;;;4977974;28;20693;-74
2020/12/24 01:16:43;;;;;;;4.03;1.83;;;;;;;;;;4985001;28;20184;-73
2020/12/24 01:19:09;;;;;;;5.07;1.55;;;;;;;;;;4972731;28;20824;-74
2020/12/24 01:21:35;;;;;;;6.15;2.22;;;;;;;;;;4972405;28;20679;-74
2020/12/24 01:24:01;;;;;;;4.23;1.97;;;;;;;;;;4970952;28;20257;-74
2020/12/24 01:26:27;;;;;;;8.30;1.50;;;;;;;;;;4970954;28;20459;-74
2020/12/24 01:28:53;;;;;;;7.83;1.83;;;;;;;;;;4971791;28;20428;-73
2020/12/24 01:31:19;;;;;;;4.53;1.53;;;;;;;;;;4972037;28;20509;-74
2020/12/24 01:33:45;;;;;;;7.53;2.13;;;;;;;;;;4971803;28;20434;-74
2020/12/24 01:36:11;;;;;;;8.13;1.97;;;;;;;;;;4976442;28;20871;-74
2020/12/24 01:38:39;;;;;;;2.80;1.40;;;;;;;;;;4972281;28;20427;-73
2020/12/24 01:41:05;;;;;;;7.45;1.60;;;;;;;;;;4976163;28;20484;-73
2020/12/24 01:43:31;;;;;;;4.97;1.58;;;;;;;;;;4974981;28;20291;-73
2020/12/24 01:45:58;;;;;;;4.80;1.20;;;;;;;;;;4975712;28;20211;-73
2020/12/24 01:48:25;;;;;;;3.95;1.60;;;;;;;;;;4971470;28;20415;-73
2020/12/24 01:50:51;;;;;;;5.25;1.95;;;;;;;;;;4965963;28;20672;-73
2020/12/24 01:53:21;;;;;;;2.53;1.50;;;;;;;;;;4971356;28;20220;-73
2020/12/24 01:55:48;;;;;;;9.73;1.98;;;;;;;;;;4975726;28;20276;-73
2020/12/24 01:58:14;;;;;;;5.82;2.13;;;;;;;;;;4982396;28;20307;-74
2020/12/24 02:00:40;;;;;;;5.25;1.67;;;;;;;;;;4977855;28;20188;-73
2020/12/24 02:03:06;;;;;;;2.30;1.60;;;;;;;;;;4971559;28;20203;-74
2020/12/24 02:05:32;;;;;;;5.83;1.70;;;;;;;;;;4973730;28;20436;-73
2020/12/24 02:07:58;;;;;;;4.80;1.70;;;;;;;;;;4981150;28;20442;-74
2020/12/24 02:10:24;;;;;;;4.27;1.63;;;;;;;;;;4970843;28;21018;-74
2020/12/24 02:12:50;;;;;;;3.88;1.60;;;;;;;;;;4973828;28;20448;-74
2020/12/24 02:15:16;;;;;;;14.90;2.33;;;;;;;;;;4972210;28;20176;-74
2020/12/24 02:17:42;;;;;;;5.10;1.77;;;;;;;;;;4971948;28;20431;-74
2020/12/24 02:20:08;;;;;;;7.03;2.53;;;;;;;;;;4978446;28;20976;-73
2020/12/24 02:22:34;;;;;;;7.73;2.27;;;;;;;;;;4975649;28;20207;-74
2020/12/24 02:25:00;;;;;;;2.90;1.50;;;;;;;;;;4971545;28;20420;-74
2020/12/24 02:27:26;;;;;;;5.63;1.53;;;;;;;;;;4977200;28;20427;-74
2020/12/24 02:29:52;;;;;;;3.40;1.40;;;;;;;;;;4975124;28;20630;-74
2020/12/24 02:32:18;;;;;;;6.93;3.00;;;;;;;;;;4969913;28;20475;-74
2020/12/24 02:34:44;;;;;;;10.30;1.50;;;;;;;;;;4971162;28;20532;-74
2020/12/24 02:37:12;;;;;;;3.77;1.50;;;;;;;;;;4975338;28;20423;-74
2020/12/24 02:39:38;;;;;;;3.33;1.75;;;;;;;;;;4976644;28;20431;-74
2020/12/24 02:42:04;;;;;;;7.40;1.73;;;;;;;;;;4975370;28;20211;-74
2020/12/24 02:44:30;;;;;;;2.43;1.03;;;;;;;;;;4975041;28;20706;-74
2020/12/24 02:46:56;;;;;;;4.07;1.23;;;;;;;;;;4975478;28;20530;-74
2020/12/24 02:49:22;;;;;;;4.10;1.43;;;;;;;;;;4975755;28;20431;-74
2020/12/24 02:51:48;;;;;;;6.80;1.87;;;;;;;;;;4972840;28;20475;-74
2020/12/24 02:54:14;;;;;;;3.27;1.23;;;;;;;;;;4974965;28;20522;-74
2020/12/24 02:56:40;;;;;;;3.87;1.60;;;;;;;;;;4975118;28;20431;-74
2020/12/24 02:59:06;;;;;;;5.70;1.20;;;;;;;;;;4974742;28;20455;-74
2020/12/24 03:01:31;;;;;;;9.37;1.90;;;;;;;;;;4973502;28;20818;-74
2020/12/24 03:03:57;;;;;;;3.73;1.30;;;;;;;;;;4977908;28;20430;-74
2020/12/24 03:06:23;;;;;;;18.77;2.57;;;;;;;;;;4980766;28;20525;-74
2020/12/24 03:08:50;;;;;;;2.67;1.40;;;;;;;;;;4975853;28;20923;-74
2020/12/24 03:11:16;;;;;;;3.85;1.05;;;;;;;;;;4973960;28;20216;-74
2020/12/24 03:13:42;;;;;;;4.40;1.37;;;;;;;;;;4974589;28;20211;-74
2020/12/24 03:16:08;;;;;;;9.60;1.87;;;;;;;;;;4974863;28;20552;-74
2020/12/24 03:18:34;;;;;;;4.93;1.50;;;;;;;;;;4974374;28;20486;-74
2020/12/24 03:21:00;;;;;;;5.80;1.73;;;;;;;;;;4974176;28;20430;-74
2020/12/24 03:23:26;;;;;;;5.97;1.95;;;;;;;;;;4973201;28;20208;-74
2020/12/24 03:25:52;;;;;;;3.93;1.53;;;;;;;;;;4975140;28;20186;-74
2020/12/24 03:28:18;;;;;;;4.03;1.23;;;;;;;;;;4974511;28;21017;-74
2020/12/24 03:30:44;;;;;;;10.73;1.58;;;;;;;;;;4974985;28;20609;-74
2020/12/24 03:33:10;;;;;;;11.60;2.00;;;;;;;;;;4974396;28;20196;-74
2020/12/24 03:35:36;;;;;;;4.07;1.50;;;;;;;;;;4974165;28;20536;-74
2020/12/24 03:38:02;;;;;;;3.87;1.10;;;;;;;;;;4978704;28;20528;-73
2020/12/24 03:40:28;;;;;;;6.23;1.60;;;;;;;;;;4974371;28;20419;-74
2020/12/24 03:42:54;;;;;;;6.07;1.63;;;;;;;;;;4974101;28;20505;-74
2020/12/24 03:45:20;;;;;;;5.55;1.55;;;;;;;;;;4978730;28;20430;-73
2020/12/24 03:47:45;;;;;;;5.73;2.20;;;;;;;;;;4982889;28;20203;-73
2020/12/24 03:50:11;;;;;;;5.20;1.30;;;;;;;;;;4973992;28;20502;-74
2020/12/24 03:52:37;;;;;;;4.03;1.47;;;;;;;;;;4974927;28;20507;-73
2020/12/24 03:55:03;;;;;;;6.30;1.63;;;;;;;;;;4993267;28;20411;-74
2020/12/24 03:57:29;;;;;;;3.70;1.90;;;;;;;;;;4974599;28;20454;-74
2020/12/24 03:59:55;;;;;;;6.18;1.67;;;;;;;;;;4975160;28;20875;-74
2020/12/24 04:02:21;;;;;;;3.40;2.10;;;;;;;;;;4978209;28;20282;-73
2020/12/24 04:04:47;;;;;;;6.63;2.27;;;;;;;;;;4973478;28;20420;-73
2020/12/24 04:07:13;;;;;;;2.23;1.37;;;;;;;;;;4973150;28;20434;-74
2020/12/24 04:09:39;;;;;;;2.63;1.43;;;;;;;;;;4973607;28;20486;-74
2020/12/24 04:12:05;;;;;;;7.70;2.20;;;;;;;;;;4972957;28;20581;-74
2020/12/24 04:14:31;;;;;;;5.40;2.00;;;;;;;;;;4973293;28;20490;-73
2020/12/24 04:16:57;;;;;;;3.67;1.50;;;;;;;;;;4981265;28;20461;-74
2020/12/24 04:19:23;;;;;;;5.45;1.50;;;;;;;;;;4980941;28;20431;-73
2020/12/24 04:21:49;;;;;;;5.60;1.80;;;;;;;;;;4974013;28;20204;-73
2020/12/24 04:24:15;;;;;;;1.83;1.33;;;;;;;;;;4973306;28;20195;-73
2020/12/24 04:26:41;;;;;;;5.13;1.57;;;;;;;;;;4961933;28;20677;-73
2020/12/24 04:29:07;;;;;;;10.10;1.80;;;;;;;;;;4978960;28;20424;-73
2020/12/24 04:31:33;;;;;;;11.83;1.80;;;;;;;;;;4972568;28;20494;-73
2020/12/24 04:33:59;;;;;;;6.90;1.70;;;;;;;;;;4973339;28;20436;-73
2020/12/24 04:36:25;;;;;;;6.97;1.77;;;;;;;;;;4973103;28;20431;-73
2020/12/24 04:38:51;;;;;;;4.70;1.70;;;;;;;;;;4974352;28;20427;-73
2020/12/24 04:41:17;;;;;;;2.75;1.70;;;;;;;;;;4972579;28;20439;-73
2020/12/24 04:43:43;;;;;;;8.38;2.65;;;;;;;;;;4973693;28;20183;-73
2020/12/24 04:46:10;;;;;;;8.13;2.25;;;;;;;;;;4972930;28;20238;-73
2020/12/24 04:48:36;;;;;;;10.52;2.42;;;;;;;;;;4986887;28;20183;-73
2020/12/24 04:51:06;;;;;;;6.00;2.37;;;;;;;;;;4972298;28;20671;-73
2020/12/24 04:53:32;;;;;;;2.80;1.20;;;;;;;;;;4973274;28;20455;-73
2020/12/24 04:55:57;;;;;;;7.20;2.08;;;;;;;;;;4982674;28;20256;-73
2020/12/24 04:58:24;;;;;;;9.03;2.70;;;;;;;;;;4970727;28;20597;-73
2020/12/24 05:00:51;;;;;;;5.13;2.05;;;;;;;;;;4972118;28;20518;-73
2020/12/24 05:03:17;;;;;;;11.88;2.60;;;;;;;;;;4970837;28;20200;-73
2020/12/24 05:05:44;;;;;;;2.80;1.55;;;;;;;;;;4975294;28;20250;-73
2020/12/24 05:08:10;;;;;;;6.20;1.70;;;;;;;;;;4971345;28;20836;-73
2020/12/24 05:10:36;;;;;;;3.58;1.27;;;;;;;;;;4972049;28;20207;-73
2020/12/24 05:13:19;;;;;;;3.65;1.73;;;;;;;;;;4974099;28;20761;-73
2020/12/24 05:15:45;;;;;;;4.90;1.55;;;;;;;;;;4967098;28;20590;-73
2020/12/24 05:18:14;;;;;;;3.22;1.70;;;;;;;;;;4978466;28;20199;-73
2020/12/24 05:20:40;;;;;;;4.63;1.52;;;;;;;;;;4975120;28;20207;-73
2020/12/24 05:23:13;;;;;;;9.85;2.00;;;;;;;;;;4972855;28;20212;-73
2020/12/24 05:25:39;;;;;;;4.53;1.90;;;;;;;;;;4971888;28;20192;-73
2020/12/24 05:28:05;;;;;;;5.18;1.65;;;;;;;;;;4972121;28;20268;-73
2020/12/24 05:30:32;;;;;;;2.85;1.25;;;;;;;;;;4976265;28;20184;-73
2020/12/24 05:32:58;;;;;;;6.55;2.60;;;;;;;;;;4981628;28;20198;-73
2020/12/24 05:35:25;;;;;;;7.13;1.40;;;;;;;;;;4975599;28;20188;-73
2020/12/24 05:37:52;;;;;;;3.95;2.33;;;;;;;;;;4972104;28;20424;-73
2020/12/24 05:40:28;;;;;;;3.47;1.48;;;;;;;;;;4972501;28;20183;-72
2020/12/24 05:42:58;;;;;;;3.40;1.60;;;;;;;;;;4978201;28;20241;-73
2020/12/24 05:45:26;;;;;;;3.63;1.20;;;;;;;;;;4976912;28;20656;-74
2020/12/24 05:48:07;;;;;;;7.57;2.45;;;;;;;;;;4973188;28;20176;-74
2020/12/24 05:50:34;;;;;;;2.85;1.35;;;;;;;;;;4972249;28;20220;-77
2020/12/24 05:53:04;;;;;;;4.57;2.47;;;;;;;;;;4983828;28;20207;-76
2020/12/24 05:55:30;;;;;;;3.85;1.67;;;;;;;;;;4979754;28;20222;-76
2020/12/24 05:57:57;;;;;;;3.08;1.42;;;;;;;;;;4974993;28;20173;-77
2020/12/24 06:00:24;;;;;;;5.22;1.40;;;;;;;;;;4978215;28;20208;-76
2020/12/24 06:02:55;;;;;;;3.33;1.15;;;;;;;;;;4991617;28;20207;-76
2020/12/24 06:05:23;;;;;;;6.78;1.48;;;;;;;;;;4989473;28;20262;-76
2020/12/24 06:08:03;;;;;;;2.80;1.52;;;;;;;;;;4978614;28;20179;-75
2020/12/24 06:10:45;;;;;;;2.88;2.10;;;;;;;;;;4967832;28;20176;-75
2020/12/24 06:13:15;;;;;;;6.43;1.17;;;;;;;;;;4975525;28;20208;-75
2020/12/24 06:15:43;;;;;;;2.00;0.90;;;;;;;;;;4976036;28;20176;-75
2020/12/24 06:18:12;;;;;;;4.28;1.25;;;;;;;;;;4976562;28;20626;-76
2020/12/24 06:20:38;;;;;;;2.88;1.42;;;;;;;;;;4981262;28;20537;-77
2020/12/24 06:23:04;;;;;;;1.23;0.90;;;;;;;;;;4978998;28;20538;-76
2020/12/24 06:25:31;;;;;;;2.78;1.50;;;;;;;;;;4977975;28;20222;-76
2020/12/24 06:27:57;;;;;;;3.53;1.48;;;;;;;;;;4976571;28;20275;-76
2020/12/24 06:30:29;;;;;;;1.90;1.08;;;;;;;;;;4975122;28;20184;-76
2020/12/24 06:32:55;;;;;;;2.88;1.65;;;;;;;;;;4985113;28;20282;-76
2020/12/24 06:35:41;;;;;;;3.60;1.10;;;;;;;;;;4986149;28;20271;-76
2020/12/24 06:38:08;;;;;;;2.38;1.10;;;;;;;;;;4975705;28;20416;-77
2020/12/24 06:40:36;;;;;;;6.82;1.55;;;;;;;;;;4974804;28;20275;-77
2020/12/24 06:43:02;;;;;;;1.55;1.02;;;;;;;;;;4974742;28;20188;-76
2020/12/24 06:45:28;;;;;;;1.88;1.08;;;;;;;;;;4974449;28;20191;-76
2020/12/24 06:48:26;;;;;;;1.40;1.00;;;;;;;;;;4974677;28;20202;-77
2020/12/24 06:51:00;;;;;;;2.25;1.45;;;;;;;;;;4978119;28;20553;-76
2020/12/24 06:53:32;;;;;;;5.00;1.60;;;;;;;;;;4971895;28;20207;-76
2020/12/24 06:56:14;;;;;;;2.70;1.30;;;;;;;;;;4974349;28;20184;-76
2020/12/24 06:58:59;;;;;;;3.25;1.00;;;;;;;;;;4965136;28;20595;-76
2020/12/24 07:01:30;;;;;;;2.58;1.60;;;;;;;;;;4972340;28;20664;-76
2020/12/24 07:04:01;;;;;;;1.73;0.85;;;;;;;;;;4973428;28;20188;-77
2020/12/24 07:06:43;;;;;;;3.92;1.52;;;;;;;;;;4974151;28;20196;-76
2020/12/24 07:09:08;;;;;;;3.22;1.00;;;;;;;;;;4973711;28;20203;-77
2020/12/24 07:11:44;;;;;;;2.90;1.10;;;;;;;;;;4974161;28;20604;-76
2020/12/24 07:14:23;;;;;;;2.78;0.90;;;;;;;;;;4974325;28;20418;-76
2020/12/24 07:16:49;;;;;;;1.50;1.02;;;;;;;;;;4974015;28;20230;-76
2020/12/24 07:19:18;;;;;;;2.92;1.17;;;;;;;;;;4971207;28;20663;-76
2020/12/24 07:21:46;;;;;;;2.17;1.02;;;;;;;;;;4972246;28;20327;-76
2020/12/24 07:24:13;;;;;;;4.93;0.93;;;;;;;;;;4973767;28;20248;-76
2020/12/24 07:26:41;;;;;;;2.03;1.17;;;;;;;;;;4973513;28;20196;-76
2020/12/24 07:29:08;;;;;;;2.20;1.20;;;;;;;;;;4973771;28;20188;-76
2020/12/24 07:31:34;;;;;;;1.90;0.90;;;;;;;;;;4974115;28;20215;-76
2020/12/24 07:34:01;;;;;;;3.27;1.63;;;;;;;;;;4973996;28;20185;-76
2020/12/24 07:36:29;;;;;;;3.92;1.00;;;;;;;;;;4974315;28;20427;-75
2020/12/24 07:38:55;;;;;;;2.78;1.00;;;;;;;;;;4974119;28;20263;-76
2020/12/24 07:41:21;;;;;;;5.20;1.20;;;;;;;;;;4973949;28;20718;-76
2020/12/24 07:43:47;;;;;;;1.38;1.05;;;;;;;;;;4971953;28;20440;-76
2020/12/24 07:46:14;;;;;;;2.83;1.45;;;;;;;;;;4973502;28;20187;-76
2020/12/24 07:48:40;;;;;;;1.63;1.20;;;;;;;;;;4973945;28;20267;-76
2020/12/24 07:51:08;;;;;;;1.30;1.08;;;;;;;;;;4972264;28;20207;-76
2020/12/24 07:53:34;;;;;;;2.42;0.80;;;;;;;;;;4974304;28;20919;-75
2020/12/24 07:56:06;;;;;;;1.42;0.90;;;;;;;;;;4972676;28;20188;-76
2020/12/24 07:58:34;;;;;;;2.33;0.90;;;;;;;;;;4973633;28;20542;-76
2020/12/24 08:01:02;;;;;;;2.08;0.95;;;;;;;;;;4974350;28;20212;-75
2020/12/24 08:03:28;;;;;;;1.60;1.23;;;;;;;;;;4974120;28;20215;-75
2020/12/24 08:06:01;;;;;;;2.40;0.90;;;;;;;;;;4980063;28;20176;-77
2020/12/24 08:08:27;;;;;;;2.00;1.40;;;;;;;;;;4978704;28;20187;-75
2020/12/24 08:10:53;;;;;;;3.87;1.03;;;;;;;;;;4969536;28;20294;-77
2020/12/24 08:13:21;;;;;;;3.23;1.13;;;;;;;;;;4965039;28;20460;-76
2020/12/24 08:15:48;;;;;;;9.35;2.55;;;;;;;;;;4966507;28;20447;-75
2020/12/24 08:18:14;;;;;;;3.28;1.58;;;;;;;;;;4972709;28;20211;-76
2020/12/24 08:20:48;;;;;;;2.05;1.15;;;;;;;;;;4973522;28;20608;-77
2020/12/24 08:23:19;;;;;;;1.65;1.00;;;;;;;;;;4978060;28;20346;-77
2020/12/24 08:25:46;;;;;;;5.43;1.55;;;;;;;;;;4974728;28;20275;-77
2020/12/24 08:28:13;;;;;;;12.00;1.52;;;;;;;;;;4972190;28;20188;-77
2020/12/24 08:30:39;;;;;;;3.00;1.42;;;;;;;;;;4975792;28;20216;-77
2020/12/24 08:33:05;;;;;;;1.60;1.10;;;;;;;;;;4979265;28;20227;-77
2020/12/24 08:35:31;;;;;;;3.63;1.20;;;;;;;;;;4980064;28;20175;-76
2020/12/24 08:38:13;;;;;;;2.67;1.10;;;;;;;;;;4982339;28;20413;-76
2020/12/24 08:40:40;;;;;;;2.85;1.50;;;;;;;;;;4977073;28;20286;-76
2020/12/24 08:43:07;;;;;;;1.50;1.13;;;;;;;;;;4977623;28;20215;-76
2020/12/24 08:45:33;;;;;;;1.25;1.08;;;;;;;;;;4980371;28;20203;-75
2020/12/24 08:47:59;;;;;;;4.38;1.17;;;;;;;;;;4981864;28;20672;-74
2020/12/24 08:50:31;;;;;;;3.58;1.35;;;;;;;;;;4981740;28;20184;-75
2020/12/24 08:52:59;;;;;;;1.35;1.25;;;;;;;;;;4967662;28;20346;-75
2020/12/24 08:55:28;;;;;;;2.10;1.30;;;;;;;;;;4973078;28;20184;-75
2020/12/24 08:57:55;;;;;;;1.88;1.30;;;;;;;;;;4969578;28;20235;-76
2020/12/24 09:00:22;;;;;;;2.08;1.35;;;;;;;;;;4979817;28;20183;-75
2020/12/24 09:02:48;;;;;;;8.00;1.80;;;;;;;;;;4989002;28;20567;-75
2020/12/24 09:05:14;;;;;;;2.95;1.30;;;;;;;;;;4971627;28;20192;-75
2020/12/24 09:07:43;;;;;;;2.70;1.23;;;;;;;;;;4973812;28;20188;-75
2020/12/24 09:10:10;;;;;;;2.53;1.77;;;;;;;;;;4977596;28;20888;-76
2020/12/24 09:12:36;;;;;;;1.90;1.70;;;;;;;;;;4971996;28;20211;-75
2020/12/24 09:15:07;;;;;;;5.28;2.13;;;;;;;;;;4971341;28;20188;-75
2020/12/24 09:17:34;;;;;;;4.00;1.50;;;;;;;;;;4970832;28;20215;-75
2020/12/24 09:20:11;;;;;;;1.52;1.42;;;;;;;;;;4971777;28;20172;-74
2020/12/24 09:22:48;;;;;;;4.40;2.20;;;;;;;;;;4973100;28;20203;-74
2020/12/24 09:25:26;;;;;;;4.55;2.65;;;;;;;;;;4969152;28;20230;-73
2020/12/24 09:27:52;;;;;;;2.42;2.17;;;;;;;;;;4974393;28;20223;-74
2020/12/24 09:30:18;;;;;;;3.20;2.92;;;;;;;;;;4971455;28;20263;-74
2020/12/24 09:32:51;;;;;;;2.55;2.35;;;;;;;;;;4975416;28;20244;-75
2020/12/24 09:35:18;;;;;;;3.67;3.38;;;;;;;;;;4976716;28;20223;-75
2020/12/24 09:37:44;;;;;;;4.05;3.33;;;;;;;;;;4971633;28;20180;-75
2020/12/24 09:40:09;;;;;;;2.90;2.47;;;;;;;;;;4972143;28;20572;-74
2020/12/24 09:42:35;;;;;;;3.20;2.97;;;;;;;;;;4971512;28;20599;-75
2020/12/24 09:45:01;;;;;;;3.40;3.20;;;;;;;;;;4980795;28;20800;-74
2020/12/24 09:47:27;;;;;;;2.90;2.70;;;;;;;;;;4968132;28;20444;-74
2020/12/24 09:49:53;;;;;;;2.83;2.63;;;;;;;;;;4971727;28;20431;-74
2020/12/24 09:52:19;;;;;;;2.97;2.70;;;;;;;;;;4970637;28;20482;-75
2020/12/24 09:54:45;;;;;;;2.30;2.10;;;;;;;;;;4969882;28;20434;-74
2020/12/24 09:57:11;;;;;;;2.10;1.95;;;;;;;;;;4970452;28;20450;-74
2020/12/24 09:59:37;;;;;;;2.10;1.90;;;;;;;;;;4971839;28;20173;-74
2020/12/24 10:02:03;;;;;;;2.23;2.03;;;;;;;;;;4969906;28;20586;-75
2020/12/24 10:04:29;;;;;;;2.13;1.20;;;;;;;;;;4969085;28;20431;-75
2020/12/24 10:06:55;;;;;;;1.53;1.43;;;;;;;;;;4971409;28;20510;-74
2020/12/24 10:09:21;;;;;;;1.20;0.95;;;;;;;;;;4972507;28;20446;-73
2020/12/24 10:11:47;;;;;;;1.63;1.10;;;;;;;;;;4972666;28;20211;-75
2020/12/24 10:14:14;;;;;;;1.10;0.77;;;;;;;;;;4964738;28;20439;-72
2020/12/24 10:16:40;;;;;;;1.15;1.00;;;;;;;;;;4973206;28;20173;-74
2020/12/24 10:19:06;;;;;;;1.17;0.80;;;;;;;;;;4973679;28;20190;-74
2020/12/24 10:21:32;;;;;;;1.10;0.85;;;;;;;;;;4973045;28;20184;-75
2020/12/24 10:23:58;;;;;;;1.30;1.10;;;;;;;;;;4971362;28;20188;-75
2020/12/24 10:26:24;;;;;;;1.20;0.90;;;;;;;;;;4970420;28;20780;-75
2020/12/24 10:28:50;;;;;;;2.27;0.90;;;;;;;;;;4971640;28;20463;-75
2020/12/24 10:31:16;;;;;;;1.00;0.80;;;;;;;;;;4970200;28;20467;-75
2020/12/24 10:33:42;;;;;;;1.70;0.85;;;;;;;;;;4971621;28;20442;-74
2020/12/24 10:36:08;;;;;;;1.30;1.20;;;;;;;;;;4970575;28;20272;-75
2020/12/24 10:38:36;;;;;;;1.50;1.05;;;;;;;;;;4970451;28;20506;-75
2020/12/24 10:41:02;;;;;;;1.10;1.00;;;;;;;;;;4969647;28;20184;-75
2020/12/24 10:43:28;;;;;;;1.10;0.80;;;;;;;;;;4972142;28;20563;-75
2020/12/24 10:45:54;;;;;;;1.45;1.08;;;;;;;;;;4971014;28;20479;-75
2020/12/24 10:48:20;;;;;;;1.33;1.10;;;;;;;;;;4973016;28;20691;-75
2020/12/24 10:50:46;;;;;;;1.15;1.00;;;;;;;;;;4965054;28;20723;-76
2020/12/24 10:53:12;;;;;;;3.17;1.75;;;;;;;;;;4958735;28;20224;-75
2020/12/24 10:55:38;;;;;;;7.20;5.72;;;;;;;;;;4968297;28;20184;-75
2020/12/24 10:58:04;;;;;;;10.57;6.17;;;;;;;;;;4974752;28;20242;-75
2020/12/24 11:00:30;;;;;;;4.53;4.10;;;;;;;;;;4973969;28;21010;-75
2020/12/24 11:02:56;;;;;;;2.00;1.40;;;;;;;;;;4975401;28;20283;-75
2020/12/24 11:05:25;;;;;;;2.47;2.27;;;;;;;;;;4973674;28;20439;-75
2020/12/24 11:07:52;;;;;;;4.97;3.83;;;;;;;;;;4971672;28;20442;-74
2020/12/24 11:10:18;;;;;;;3.05;2.53;;;;;;;;;;4973914;28;20274;-73
2020/12/24 11:12:44;;;;;;;3.10;2.50;;;;;;;;;;4972201;28;20355;-74
2020/12/24 11:15:10;;;;;;;1.50;1.37;;;;;;;;;;4973372;28;20436;-74
2020/12/24 11:17:36;;;;;;;1.90;1.70;;;;;;;;;;4974584;28;20430;-74
2020/12/24 11:20:02;;;;;;;1.80;1.70;;;;;;;;;;4974601;28;20930;-74
2020/12/24 11:22:30;;;;;;;2.00;1.80;;;;;;;;;;4972579;28;20534;-74
2020/12/24 11:24:56;;;;;;;1.38;1.15;;;;;;;;;;4974718;28;20695;-74
2020/12/24 11:27:22;;;;;;;1.67;1.50;;;;;;;;;;4972664;28;20220;-75
2020/12/24 11:29:48;;;;;;;3.22;1.50;;;;;;;;;;4973168;28;20435;-74
2020/12/24 11:32:14;;;;;;;1.70;1.60;;;;;;;;;;4973694;28;20318;-74
2020/12/24 11:34:40;;;;;;;1.50;1.40;;;;;;;;;;4973755;28;20436;-74
2020/12/24 11:37:06;;;;;;;1.93;1.50;;;;;;;;;;4973924;28;20434;-73
2020/12/24 11:39:32;;;;;;;1.42;1.33;;;;;;;;;;4972936;28;20474;-74
2020/12/24 11:41:58;;;;;;;1.83;1.63;;;;;;;;;;4968371;28;20228;-72
2020/12/24 11:44:24;;;;;;;2.25;2.00;;;;;;;;;;4962764;28;20475;-72
2020/12/24 11:46:50;;;;;;;2.00;1.80;;;;;;;;;;4973922;28;20224;-73
2020/12/24 11:49:16;;;;;;;2.03;1.92;;;;;;;;;;4972826;28;20866;-74
2020/12/24 11:51:42;;;;;;;2.70;2.50;;;;;;;;;;4974525;28;20236;-73
2020/12/24 11:54:08;;;;;;;2.93;2.70;;;;;;;;;;4973078;28;20180;-73
2020/12/24 11:56:34;;;;;;;5.77;4.43;;;;;;;;;;4972917;28;20439;-74
2020/12/24 11:59:00;;;;;;;5.60;5.10;;;;;;;;;;4972243;28;20446;-73
2020/12/24 12:01:26;;;;;;;5.47;4.93;;;;;;;;;;4973703;28;20428;-73
2020/12/24 12:03:52;;;;;;;6.17;5.47;;;;;;;;;;4976193;28;20179;-73
2020/12/24 12:06:18;;;;;;;5.70;5.18;;;;;;;;;;4975400;28;20922;-74
2020/12/24 12:08:47;;;;;;;6.72;5.90;;;;;;;;;;4968751;28;20192;-74
2020/12/24 12:11:13;;;;;;;8.32;7.13;;;;;;;;;;4973351;28;20211;-74
2020/12/24 12:13:40;;;;;;;8.52;7.63;;;;;;;;;;4973031;28;20659;-74
2020/12/24 12:16:08;;;;;;;9.55;8.55;;;;;;;;;;4973418;28;20179;-74
2020/12/24 12:18:34;;;;;;;9.38;8.48;;;;;;;;;;4974434;28;20555;-75
2020/12/24 12:21:00;;;;;;;13.63;10.07;;;;;;;;;;4971559;28;20195;-75
2020/12/24 12:23:26;;;;;;;12.68;9.60;;;;;;;;;;4971550;28;20215;-74
2020/12/24 12:25:52;;;;;;;15.23;10.45;;;;;;;;;;4972222;28;20574;-74
2020/12/24 12:28:18;;;;;;;15.77;9.85;;;;;;;;;;4973016;28;20180;-73
2020/12/24 12:30:44;;;;;;;13.05;8.60;;;;;;;;;;4971560;28;20211;-74
2020/12/24 12:33:10;;;;;;;13.13;10.43;;;;;;;;;;4972569;28;20200;-74
2020/12/24 12:35:36;;;;;;;17.45;11.13;;;;;;;;;;4971395;28;20444;-74
2020/12/24 12:38:02;;;;;;;16.03;10.77;;;;;;;;;;4971833;28;20183;-74
2020/12/24 12:40:28;;;;;;;11.10;9.80;;;;;;;;;;4974039;28;20872;-75
2020/12/24 12:42:54;;;;;;;11.35;9.52;;;;;;;;;;4973223;28;20228;-75
2020/12/24 12:45:20;;;;;;;10.55;8.68;;;;;;;;;;4972918;28;20565;-74
2020/12/24 12:47:46;;;;;;;8.33;7.10;;;;;;;;;;4973004;28;20177;-74
2020/12/24 12:50:14;;;;;;;8.80;7.53;;;;;;;;;;4972196;28;20423;-75
2020/12/24 12:52:40;;;;;;;6.57;5.72;;;;;;;;;;4972948;28;20471;-74
2020/12/24 12:55:06;;;;;;;5.00;4.50;;;;;;;;;;4972938;28;20194;-75
2020/12/24 12:57:35;;;;;;;5.32;4.22;;;;;;;;;;4971735;28;20630;-75
2020/12/24 13:00:03;;;;;;;3.42;3.13;;;;;;;;;;4971019;28;20727;-74
2020/12/24 13:02:29;;;;;;;4.93;4.43;;;;;;;;;;4973350;28;20215;-74
2020/12/24 13:04:55;;;;;;;3.40;3.10;;;;;;;;;;4972223;28;20196;-74
2020/12/24 13:07:21;;;;;;;3.03;2.73;;;;;;;;;;4972790;28;20805;-75
2020/12/24 13:09:48;;;;;;;3.47;2.97;;;;;;;;;;4972615;28;21170;-75
2020/12/24 13:12:14;;;;;;;3.72;2.85;;;;;;;;;;4980607;28;20501;-75
2020/12/24 13:14:40;;;;;;;2.72;2.53;;;;;;;;;;4975701;28;20208;-74
2020/12/24 13:17:06;;;;;;;2.75;2.55;;;;;;;;;;4972183;28;20176;-75
2020/12/24 13:19:32;;;;;;;2.15;1.80;;;;;;;;;;4965735;28;20212;-75
2020/12/24 13:21:58;;;;;;;3.10;2.13;;;;;;;;;;4977118;28;20204;-74
2020/12/24 13:24:24;;;;;;;2.60;2.20;;;;;;;;;;4980836;28;20184;-75
2020/12/24 13:26:54;;;;;;;2.97;2.70;;;;;;;;;;4971319;28;20180;-75
2020/12/24 13:29:20;;;;;;;3.60;2.88;;;;;;;;;;4971449;28;20528;-75
2020/12/24 13:31:50;;;;;;;3.00;2.70;;;;;;;;;;4971717;28;20719;-74
2020/12/24 13:34:17;;;;;;;2.50;2.30;;;;;;;;;;4971651;28;20296;-74
2020/12/24 13:36:46;;;;;;;3.13;2.75;;;;;;;;;;4972850;28;20672;-75
2020/12/24 13:39:13;;;;;;;4.18;3.10;;;;;;;;;;4976054;28;20183;-73
2020/12/24 13:41:39;;;;;;;2.78;2.58;;;;;;;;;;4980566;28;20200;-75
2020/12/24 13:44:05;;;;;;;2.92;2.42;;;;;;;;;;4984091;28;20563;-74
2020/12/24 13:46:31;;;;;;;3.33;2.97;;;;;;;;;;4971911;28;20188;-74
2020/12/24 13:48:58;;;;;;;4.13;3.30;;;;;;;;;;4972294;28;20176;-75
2020/12/24 13:51:24;;;;;;;3.60;3.35;;;;;;;;;;4981312;28;20200;-75
2020/12/24 13:53:50;;;;;;;3.70;2.88;;;;;;;;;;4979411;28;20185;-76
2020/12/24 13:56:16;;;;;;;3.87;3.20;;;;;;;;;;4979915;28;20650;-75
2020/12/24 13:58:42;;;;;;;3.55;3.25;;;;;;;;;;4972259;28;20434;-76
2020/12/24 14:01:14;;;;;;;3.50;3.20;;;;;;;;;;4971381;28;20825;-76
2020/12/24 14:03:41;;;;;;;3.13;2.83;;;;;;;;;;4971798;28;20690;-73
2020/12/24 14:06:11;;;;;;;7.18;3.80;;;;;;;;;;4971089;28;20617;-75
2020/12/24 14:08:37;;;;;;;6.90;6.40;;;;;;;;;;4971596;28;20242;-74
2020/12/24 14:11:04;;;;;;;5.45;4.35;;;;;;;;;;4971171;28;20231;-74
2020/12/24 14:13:30;;;;;;;6.63;3.90;;;;;;;;;;4970689;28;20227;-75
2020/12/24 14:16:00;;;;;;;3.72;3.42;;;;;;;;;;4981031;28;20714;-75
2020/12/24 14:18:26;;;;;;;7.75;4.35;;;;;;;;;;4973268;28;20258;-75
2020/12/24 14:20:52;;;;;;;4.03;3.55;;;;;;;;;;4976355;28;20176;-75
2020/12/24 14:23:19;;;;;;;4.70;3.70;;;;;;;;;;4971118;28;20200;-74
2020/12/24 14:25:45;;;;;;;3.88;3.47;;;;;;;;;;4968922;28;20219;-75
2020/12/24 14:28:11;;;;;;;4.13;3.70;;;;;;;;;;4969958;28;20215;-74
2020/12/24 14:30:37;;;;;;;4.80;4.35;;;;;;;;;;4969982;28;20485;-75
2020/12/24 14:33:04;;;;;;;4.45;4.05;;;;;;;;;;4974675;28;20606;-74
2020/12/24 14:35:30;;;;;;;4.25;3.85;;;;;;;;;;4975195;28;20176;-74
2020/12/24 14:37:57;;;;;;;6.07;4.30;;;;;;;;;;4975099;28;20546;-74
2020/12/24 14:40:23;;;;;;;7.05;4.10;;;;;;;;;;4974926;28;20914;-73